sensor_id;sensor_type;location;lat;lon;timestamp;P1;durP1;ratioP1;P2;durP2;ratioP2
24681;SDS011;12802;53.390;-2.328;2024-01-10T00:00:00;4.13;;;1.83;;
24681;SDS011;12802;53.390;-2.328;2024-01-10T00:02:29;6.32;;;2.72;;
24681;SDS011;12802;53.390;-2.328;2024-01-10T00:04:55;5.10;;;2.00;;
24681;SDS011;12802;53.390;-2.328;2024-01-10T00:07:21;4.47;;;1.95;;
24681;SDS011;12802;53.390;-2.328;2024-01-10T00:09:47;9.40;;;2.40;;
24681;SDS011;12802;53.390;-2.328;2024-01-10T00:12:14;7.32;;;2.03;;
24681;SDS011;12802;53.390;-2.328;2024-01-10T00:14:40;7.20;;;1.75;;
24681;SDS011;12802;53.390;-2.328;2024-01-10T00:17:06;7.20;;;1.92;;
24681;SDS011;12802;53.390;-2.328;2024-01-10T00:19:32;9.85;;;2.33;;
24681;SDS011;12802;53.390;-2.328;2024-01-10T00:21:58;7.05;;;1.88;;
24681;SDS011;12802;53.390;-2.328;2024-01-10T00:24:25;7.45;;;2.33;;
24681;SDS011;12802;53.390;-2.328;2024-01-10T00:26:51;7.60;;;2.13;;
24681;SDS011;12802;53.390;-2.328;2024-01-10T00:29:17;6.30;;;2.17;;
24681;SDS011;12802;53.390;-2.328;2024-01-10T00:31:43;8.52;;;2.38;;
24681;SDS011;12802;53.390;-2.328;2024-01-10T00:34:09;4.75;;;2.20;;
24681;SDS011;12802;53.390;-2.328;2024-01-10T00:36:35;4.20;;;2.70;;
24681;SDS011;12802;53.390;-2.328;2024-01-10T00:39:01;7.53;;;2.50;;
24681;SDS011;12802;53.390;-2.328;2024-01-10T00:41:27;5.43;;;2.22;;
24681;SDS011;12802;53.390;-2.328;2024-01-10T00:43:54;6.80;;;2.47;;
24681;SDS011;12802;53.390;-2.328;2024-01-10T00:46:20;6.70;;;2.50;;
24681;SDS011;12802;53.390;-2.328;2024-01-10T00:48:46;7.15;;;2.33;;
24681;SDS011;12802;53.390;-2.328;2024-01-10T00:51:12;3.67;;;2.17;;
24681;SDS011;12802;53.390;-2.328;2024-01-10T00:53:38;8.70;;;2.40;;
24681;SDS011;12802;53.390;-2.328;2024-01-10T00:56:05;6.13;;;2.20;;
24681;SDS011;12802;53.390;-2.328;2024-01-10T00:58:31;11.63;;;2.75;;
24681;SDS011;12802;53.390;-2.328;2024-01-10T01:00:57;8.18;;;2.75;;
24681;SDS011;12802;53.390;-2.328;2024-01-10T01:03:23;4.35;;;2.33;;
24681;SDS011;12802;53.390;-2.328;2024-01-10T01:05:49;7.18;;;2.65;;
24681;SDS011;12802;53.390;-2.328;2024-01-10T01:08:16;3.28;;;2.47;;
24681;SDS011;12802;53.390;-2.328;2024-01-10T01:10:42;8.10;;;2.45;;
24681;SDS011;12802;53.390;-2.328;2024-01-10T01:13:08;6.13;;;2.42;;
24681;SDS011;12802;53.390;-2.328;2024-01-10T01:15:34;4.38;;;2.30;;
24681;SDS011;12802;53.390;-2.328;2024-01-10T01:18:00;5.15;;;2.50;;
24681;SDS011;12802;53.390;-2.328;2024-01-10T01:20:26;7.43;;;2.63;;
24681;SDS011;12802;53.390;-2.328;2024-01-10T01:22:52;4.43;;;2.63;;
24681;SDS011;12802;53.390;-2.328;2024-01-10T01:25:18;5.95;;;2.70;;
24681;SDS011;12802;53.390;-2.328;2024-01-10T01:27:45;6.38;;;2.20;;
24681;SDS011;12802;53.390;-2.328;2024-01-10T01:30:11;7.75;;;2.25;;
24681;SDS011;12802;53.390;-2.328;2024-01-10T01:32:38;6.03;;;2.40;;
24681;SDS011;12802;53.390;-2.328;2024-01-10T01:35:04;6.95;;;2.97;;
24681;SDS011;12802;53.390;-2.328;2024-01-10T01:37:30;3.08;;;2.20;;
24681;SDS011;12802;53.390;-2.328;2024-01-10T01:39:56;7.15;;;2.40;;
24681;SDS011;12802;53.390;-2.328;2024-01-10T01:42:23;5.95;;;2.30;;
24681;SDS011;12802;53.390;-2.328;2024-01-10T01:44:49;9.13;;;2.70;;
24681;SDS011;12802;53.390;-2.328;2024-01-10T01:47:15;5.55;;;2.17;;
24681;SDS011;12802;53.390;-2.328;2024-01-10T01:49:41;7.53;;;2.55;;
24681;SDS011;12802;53.390;-2.328;2024-01-10T01:52:08;5.22;;;2.45;;
24681;SDS011;12802;53.390;-2.328;2024-01-10T01:54:34;6.68;;;2.40;;
24681;SDS011;12802;53.390;-2.328;2024-01-10T01:57:01;4.72;;;2.20;;
24681;SDS011;12802;53.390;-2.328;2024-01-10T01:59:27;3.63;;;2.10;;
24681;SDS011;12802;53.390;-2.328;2024-01-10T02:01:54;4.35;;;2.20;;
24681;SDS011;12802;53.390;-2.328;2024-01-10T02:04:23;2.92;;;1.90;;
24681;SDS011;12802;53.390;-2.328;2024-01-10T02:06:50;4.50;;;2.38;;
24681;SDS011;12802;53.390;-2.328;2024-01-10T02:09:16;5.18;;;2.00;;
24681;SDS011;12802;53.390;-2.328;2024-01-10T02:11:42;8.75;;;2.80;;
24681;SDS011;12802;53.390;-2.328;2024-01-10T02:14:09;7.72;;;2.72;;
24681;SDS011;12802;53.390;-2.328;2024-01-10T02:16:36;6.32;;;2.95;;
24681;SDS011;12802;53.390;-2.328;2024-01-10T02:19:16;6.63;;;3.17;;
24681;SDS011;12802;53.390;-2.328;2024-01-10T02:21:43;9.05;;;3.50;;
24681;SDS011;12802;53.390;-2.328;2024-01-10T02:24:09;9.82;;;3.70;;
24681;SDS011;12802;53.390;-2.328;2024-01-10T02:26:35;7.68;;;3.80;;
24681;SDS011;12802;53.390;-2.328;2024-01-10T02:29:01;7.00;;;4.07;;
24681;SDS011;12802;53.390;-2.328;2024-01-10T02:31:27;9.55;;;3.97;;
24681;SDS011;12802;53.390;-2.328;2024-01-10T02:33:53;6.72;;;4.55;;
24681;SDS011;12802;53.390;-2.328;2024-01-10T02:36:19;6.38;;;4.05;;
24681;SDS011;12802;53.390;-2.328;2024-01-10T02:38:46;6.35;;;4.18;;
24681;SDS011;12802;53.390;-2.328;2024-01-10T02:41:13;7.50;;;3.88;;
24681;SDS011;12802;53.390;-2.328;2024-01-10T02:43:39;8.27;;;4.00;;
24681;SDS011;12802;53.390;-2.328;2024-01-10T02:46:05;5.28;;;3.83;;
24681;SDS011;12802;53.390;-2.328;2024-01-10T02:48:31;7.53;;;4.10;;
24681;SDS011;12802;53.390;-2.328;2024-01-10T02:50:57;7.82;;;3.85;;
24681;SDS011;12802;53.390;-2.328;2024-01-10T02:53:24;5.95;;;4.25;;
24681;SDS011;12802;53.390;-2.328;2024-01-10T02:55:50;6.15;;;4.53;;
24681;SDS011;12802;53.390;-2.328;2024-01-10T02:58:16;6.40;;;4.13;;
24681;SDS011;12802;53.390;-2.328;2024-01-10T03:00:43;9.52;;;4.95;;
24681;SDS011;12802;53.390;-2.328;2024-01-10T03:03:09;8.13;;;4.03;;
24681;SDS011;12802;53.390;-2.328;2024-01-10T03:05:36;6.85;;;4.03;;
24681;SDS011;12802;53.390;-2.328;2024-01-10T03:08:02;6.90;;;3.67;;
24681;SDS011;12802;53.390;-2.328;2024-01-10T03:10:29;7.18;;;3.78;;
24681;SDS011;12802;53.390;-2.328;2024-01-10T03:12:55;6.57;;;3.67;;
24681;SDS011;12802;53.390;-2.328;2024-01-10T03:15:21;7.32;;;3.38;;
24681;SDS011;12802;53.390;-2.328;2024-01-10T03:17:48;6.38;;;3.60;;
24681;SDS011;12802;53.390;-2.328;2024-01-10T03:20:14;6.45;;;3.45;;
24681;SDS011;12802;53.390;-2.328;2024-01-10T03:22:40;8.13;;;3.53;;
24681;SDS011;12802;53.390;-2.328;2024-01-10T03:25:07;5.97;;;3.33;;
24681;SDS011;12802;53.390;-2.328;2024-01-10T03:27:33;6.95;;;3.67;;
24681;SDS011;12802;53.390;-2.328;2024-01-10T03:29:59;6.53;;;4.05;;
24681;SDS011;12802;53.390;-2.328;2024-01-10T03:32:25;6.53;;;3.30;;
24681;SDS011;12802;53.390;-2.328;2024-01-10T03:34:51;7.00;;;3.55;;
24681;SDS011;12802;53.390;-2.328;2024-01-10T03:37:18;5.80;;;2.60;;
24681;SDS011;12802;53.390;-2.328;2024-01-10T03:39:44;5.65;;;2.20;;
24681;SDS011;12802;53.390;-2.328;2024-01-10T03:42:10;4.63;;;2.40;;
24681;SDS011;12802;53.390;-2.328;2024-01-10T03:44:36;4.18;;;2.40;;
24681;SDS011;12802;53.390;-2.328;2024-01-10T03:47:02;3.67;;;1.90;;
24681;SDS011;12802;53.390;-2.328;2024-01-10T03:49:29;3.33;;;2.13;;
24681;SDS011;12802;53.390;-2.328;2024-01-10T03:51:55;6.75;;;2.42;;
24681;SDS011;12802;53.390;-2.328;2024-01-10T03:54:21;4.00;;;2.05;;
24681;SDS011;12802;53.390;-2.328;2024-01-10T03:56:47;3.80;;;2.17;;
24681;SDS011;12802;53.390;-2.328;2024-01-10T03:59:13;3.72;;;2.10;;
24681;SDS011;12802;53.390;-2.328;2024-01-10T04:01:39;5.55;;;2.03;;
24681;SDS011;12802;53.390;-2.328;2024-01-10T04:04:05;3.33;;;2.13;;
24681;SDS011;12802;53.390;-2.328;2024-01-10T04:06:32;5.05;;;1.92;;
24681;SDS011;12802;53.390;-2.328;2024-01-10T04:08:58;3.35;;;1.92;;
24681;SDS011;12802;53.390;-2.328;2024-01-10T04:11:24;3.13;;;1.80;;
24681;SDS011;12802;53.390;-2.328;2024-01-10T04:13:50;2.97;;;1.90;;
24681;SDS011;12802;53.390;-2.328;2024-01-10T04:16:16;3.45;;;1.98;;
24681;SDS011;12802;53.390;-2.328;2024-01-10T04:18:43;3.15;;;1.65;;
24681;SDS011;12802;53.390;-2.328;2024-01-10T04:21:09;2.92;;;1.88;;
24681;SDS011;12802;53.390;-2.328;2024-01-10T04:23:35;6.18;;;2.50;;
24681;SDS011;12802;53.390;-2.328;2024-01-10T04:26:01;3.45;;;1.92;;
24681;SDS011;12802;53.390;-2.328;2024-01-10T04:28:28;6.32;;;2.10;;
24681;SDS011;12802;53.390;-2.328;2024-01-10T04:30:54;5.50;;;2.05;;
24681;SDS011;12802;53.390;-2.328;2024-01-10T04:33:20;3.83;;;1.75;;
24681;SDS011;12802;53.390;-2.328;2024-01-10T04:35:46;3.10;;;1.80;;
24681;SDS011;12802;53.390;-2.328;2024-01-10T04:38:13;3.60;;;1.58;;
24681;SDS011;12802;53.390;-2.328;2024-01-10T04:40:39;2.90;;;1.40;;
24681;SDS011;12802;53.390;-2.328;2024-01-10T04:43:05;2.15;;;1.40;;
24681;SDS011;12802;53.390;-2.328;2024-01-10T04:45:31;1.58;;;1.25;;
24681;SDS011;12802;53.390;-2.328;2024-01-10T04:47:57;2.45;;;1.50;;
24681;SDS011;12802;53.390;-2.328;2024-01-10T04:50:24;3.03;;;1.75;;
24681;SDS011;12802;53.390;-2.328;2024-01-10T04:52:50;1.73;;;1.33;;
24681;SDS011;12802;53.390;-2.328;2024-01-10T04:55:16;2.58;;;1.33;;
24681;SDS011;12802;53.390;-2.328;2024-01-10T04:57:42;2.22;;;1.45;;
24681;SDS011;12802;53.390;-2.328;2024-01-10T05:00:08;2.60;;;1.30;;
24681;SDS011;12802;53.390;-2.328;2024-01-10T05:02:35;3.05;;;1.35;;
24681;SDS011;12802;53.390;-2.328;2024-01-10T05:05:01;1.80;;;1.25;;
24681;SDS011;12802;53.390;-2.328;2024-01-10T05:07:29;1.95;;;1.50;;
24681;SDS011;12802;53.390;-2.328;2024-01-10T05:09:55;2.53;;;1.60;;
24681;SDS011;12802;53.390;-2.328;2024-01-10T05:12:21;4.32;;;1.67;;
24681;SDS011;12802;53.390;-2.328;2024-01-10T05:14:47;3.13;;;1.55;;
24681;SDS011;12802;53.390;-2.328;2024-01-10T05:17:13;2.75;;;1.73;;
24681;SDS011;12802;53.390;-2.328;2024-01-10T05:19:39;2.08;;;1.60;;
24681;SDS011;12802;53.390;-2.328;2024-01-10T05:22:06;4.20;;;1.73;;
24681;SDS011;12802;53.390;-2.328;2024-01-10T05:24:32;2.28;;;1.40;;
24681;SDS011;12802;53.390;-2.328;2024-01-10T05:26:58;2.47;;;1.77;;
24681;SDS011;12802;53.390;-2.328;2024-01-10T05:29:24;3.15;;;1.80;;
24681;SDS011;12802;53.390;-2.328;2024-01-10T05:31:51;2.60;;;1.90;;
24681;SDS011;12802;53.390;-2.328;2024-01-10T05:34:17;2.47;;;1.92;;
24681;SDS011;12802;53.390;-2.328;2024-01-10T05:36:43;2.25;;;1.63;;
24681;SDS011;12802;53.390;-2.328;2024-01-10T05:39:09;3.15;;;2.15;;
24681;SDS011;12802;53.390;-2.328;2024-01-10T05:41:35;3.85;;;2.40;;
24681;SDS011;12802;53.390;-2.328;2024-01-10T05:44:02;3.92;;;2.28;;
24681;SDS011;12802;53.390;-2.328;2024-01-10T05:46:29;5.07;;;2.53;;
24681;SDS011;12802;53.390;-2.328;2024-01-10T05:48:56;3.47;;;2.00;;
24681;SDS011;12802;53.390;-2.328;2024-01-10T05:51:22;3.28;;;2.20;;
24681;SDS011;12802;53.390;-2.328;2024-01-10T05:53:48;3.92;;;2.40;;
24681;SDS011;12802;53.390;-2.328;2024-01-10T05:56:14;4.22;;;2.30;;
24681;SDS011;12802;53.390;-2.328;2024-01-10T05:58:40;3.22;;;2.13;;
24681;SDS011;12802;53.390;-2.328;2024-01-10T06:01:07;3.53;;;2.40;;
24681;SDS011;12802;53.390;-2.328;2024-01-10T06:03:35;3.85;;;2.95;;
24681;SDS011;12802;53.390;-2.328;2024-01-10T06:06:02;4.50;;;2.63;;
24681;SDS011;12802;53.390;-2.328;2024-01-10T06:08:28;4.35;;;2.50;;
24681;SDS011;12802;53.390;-2.328;2024-01-10T06:10:54;4.15;;;2.60;;
24681;SDS011;12802;53.390;-2.328;2024-01-10T06:13:21;4.93;;;2.80;;
24681;SDS011;12802;53.390;-2.328;2024-01-10T06:15:47;3.65;;;2.60;;
24681;SDS011;12802;53.390;-2.328;2024-01-10T06:18:13;3.08;;;2.58;;
24681;SDS011;12802;53.390;-2.328;2024-01-10T06:20:39;4.40;;;3.40;;
24681;SDS011;12802;53.390;-2.328;2024-01-10T06:23:05;5.18;;;2.90;;
24681;SDS011;12802;53.390;-2.328;2024-01-10T06:25:31;5.55;;;3.25;;
24681;SDS011;12802;53.390;-2.328;2024-01-10T06:27:57;5.07;;;2.85;;
24681;SDS011;12802;53.390;-2.328;2024-01-10T06:30:24;5.15;;;2.88;;
24681;SDS011;12802;53.390;-2.328;2024-01-10T06:32:50;5.05;;;3.28;;
24681;SDS011;12802;53.390;-2.328;2024-01-10T06:35:16;4.45;;;3.00;;
24681;SDS011;12802;53.390;-2.328;2024-01-10T06:37:42;4.72;;;3.13;;
24681;SDS011;12802;53.390;-2.328;2024-01-10T06:40:09;6.53;;;3.20;;
24681;SDS011;12802;53.390;-2.328;2024-01-10T06:42:36;4.68;;;3.10;;
24681;SDS011;12802;53.390;-2.328;2024-01-10T06:45:04;6.82;;;3.47;;
24681;SDS011;12802;53.390;-2.328;2024-01-10T06:47:32;6.25;;;2.67;;
24681;SDS011;12802;53.390;-2.328;2024-01-10T06:49:59;5.00;;;2.70;;
24681;SDS011;12802;53.390;-2.328;2024-01-10T06:52:25;3.65;;;2.55;;
24681;SDS011;12802;53.390;-2.328;2024-01-10T06:54:51;3.70;;;2.42;;
24681;SDS011;12802;53.390;-2.328;2024-01-10T06:57:17;3.22;;;2.50;;
24681;SDS011;12802;53.390;-2.328;2024-01-10T06:59:43;3.67;;;2.40;;
24681;SDS011;12802;53.390;-2.328;2024-01-10T07:02:09;4.63;;;2.67;;
24681;SDS011;12802;53.390;-2.328;2024-01-10T07:04:37;5.20;;;2.45;;
24681;SDS011;12802;53.390;-2.328;2024-01-10T07:07:03;5.15;;;2.78;;
24681;SDS011;12802;53.390;-2.328;2024-01-10T07:09:29;3.80;;;2.40;;
24681;SDS011;12802;53.390;-2.328;2024-01-10T07:11:55;3.95;;;2.63;;
24681;SDS011;12802;53.390;-2.328;2024-01-10T07:14:21;7.40;;;2.97;;
24681;SDS011;12802;53.390;-2.328;2024-01-10T07:16:48;8.40;;;2.97;;
24681;SDS011;12802;53.390;-2.328;2024-01-10T07:19:14;4.53;;;2.50;;
24681;SDS011;12802;53.390;-2.328;2024-01-10T07:21:40;3.40;;;2.10;;
24681;SDS011;12802;53.390;-2.328;2024-01-10T07:24:07;3.38;;;2.00;;
24681;SDS011;12802;53.390;-2.328;2024-01-10T07:26:37;4.32;;;2.22;;
24681;SDS011;12802;53.390;-2.328;2024-01-10T07:29:03;3.75;;;1.80;;
24681;SDS011;12802;53.390;-2.328;2024-01-10T07:31:33;3.17;;;1.80;;
24681;SDS011;12802;53.390;-2.328;2024-01-10T07:34:00;5.93;;;1.73;;
24681;SDS011;12802;53.390;-2.328;2024-01-10T07:36:26;4.53;;;1.70;;
24681;SDS011;12802;53.390;-2.328;2024-01-10T07:38:55;2.00;;;1.40;;
24681;SDS011;12802;53.390;-2.328;2024-01-10T07:41:22;3.72;;;1.67;;
24681;SDS011;12802;53.390;-2.328;2024-01-10T07:43:49;2.65;;;1.75;;
24681;SDS011;12802;53.390;-2.328;2024-01-10T07:46:15;6.30;;;2.88;;
24681;SDS011;12802;53.390;-2.328;2024-01-10T07:48:41;5.78;;;3.42;;
24681;SDS011;12802;53.390;-2.328;2024-01-10T07:51:07;6.63;;;3.05;;
24681;SDS011;12802;53.390;-2.328;2024-01-10T07:53:33;7.10;;;3.47;;
24681;SDS011;12802;53.390;-2.328;2024-01-10T07:55:59;6.53;;;2.78;;
24681;SDS011;12802;53.390;-2.328;2024-01-10T07:58:26;5.47;;;2.40;;
24681;SDS011;12802;53.390;-2.328;2024-01-10T08:00:52;2.92;;;2.08;;
24681;SDS011;12802;53.390;-2.328;2024-01-10T08:03:19;4.60;;;1.80;;
24681;SDS011;12802;53.390;-2.328;2024-01-10T08:05:45;2.72;;;1.88;;
24681;SDS011;12802;53.390;-2.328;2024-01-10T08:08:11;2.80;;;1.73;;
24681;SDS011;12802;53.390;-2.328;2024-01-10T08:10:38;7.85;;;2.55;;
24681;SDS011;12802;53.390;-2.328;2024-01-10T08:13:05;3.60;;;2.38;;
24681;SDS011;12802;53.390;-2.328;2024-01-10T08:15:31;3.78;;;2.17;;
24681;SDS011;12802;53.390;-2.328;2024-01-10T08:17:59;5.70;;;2.70;;
24681;SDS011;12802;53.390;-2.328;2024-01-10T08:20:28;5.50;;;2.95;;
24681;SDS011;12802;53.390;-2.328;2024-01-10T08:22:54;5.78;;;3.10;;
24681;SDS011;12802;53.390;-2.328;2024-01-10T08:25:21;5.47;;;2.70;;
24681;SDS011;12802;53.390;-2.328;2024-01-10T08:27:47;5.38;;;3.08;;
24681;SDS011;12802;53.390;-2.328;2024-01-10T08:30:14;5.35;;;2.50;;
24681;SDS011;12802;53.390;-2.328;2024-01-10T08:32:40;4.95;;;2.30;;
24681;SDS011;12802;53.390;-2.328;2024-01-10T08:35:07;3.03;;;2.28;;
24681;SDS011;12802;53.390;-2.328;2024-01-10T08:37:36;4.13;;;2.13;;
24681;SDS011;12802;53.390;-2.328;2024-01-10T08:40:02;6.63;;;2.20;;
24681;SDS011;12802;53.390;-2.328;2024-01-10T08:42:35;4.70;;;2.45;;
24681;SDS011;12802;53.390;-2.328;2024-01-10T08:45:01;3.28;;;2.58;;
24681;SDS011;12802;53.390;-2.328;2024-01-10T08:47:27;4.60;;;2.97;;
24681;SDS011;12802;53.390;-2.328;2024-01-10T08:49:56;5.88;;;2.50;;
24681;SDS011;12802;53.390;-2.328;2024-01-10T08:52:22;4.28;;;2.92;;
24681;SDS011;12802;53.390;-2.328;2024-01-10T08:54:48;6.57;;;2.97;;
24681;SDS011;12802;53.390;-2.328;2024-01-10T08:57:14;5.53;;;3.08;;
24681;SDS011;12802;53.390;-2.328;2024-01-10T08:59:41;5.22;;;3.13;;
24681;SDS011;12802;53.390;-2.328;2024-01-10T09:02:07;5.85;;;3.50;;
24681;SDS011;12802;53.390;-2.328;2024-01-10T09:04:33;4.72;;;3.50;;
24681;SDS011;12802;53.390;-2.328;2024-01-10T09:07:00;6.75;;;3.97;;
24681;SDS011;12802;53.390;-2.328;2024-01-10T09:09:26;6.38;;;3.65;;
24681;SDS011;12802;53.390;-2.328;2024-01-10T09:11:53;4.88;;;3.47;;
24681;SDS011;12802;53.390;-2.328;2024-01-10T09:14:19;6.10;;;3.83;;
24681;SDS011;12802;53.390;-2.328;2024-01-10T09:16:45;13.00;;;3.67;;
24681;SDS011;12802;53.390;-2.328;2024-01-10T09:19:11;8.48;;;3.63;;
24681;SDS011;12802;53.390;-2.328;2024-01-10T09:21:38;5.82;;;3.00;;
24681;SDS011;12802;53.390;-2.328;2024-01-10T09:24:04;10.60;;;3.40;;
24681;SDS011;12802;53.390;-2.328;2024-01-10T09:26:34;7.05;;;3.67;;
24681;SDS011;12802;53.390;-2.328;2024-01-10T09:29:00;10.95;;;3.65;;
24681;SDS011;12802;53.390;-2.328;2024-01-10T09:31:26;6.25;;;2.80;;
24681;SDS011;12802;53.390;-2.328;2024-01-10T09:33:52;4.47;;;2.63;;
24681;SDS011;12802;53.390;-2.328;2024-01-10T09:36:19;7.65;;;3.70;;
24681;SDS011;12802;53.390;-2.328;2024-01-10T09:38:45;6.57;;;3.83;;
24681;SDS011;12802;53.390;-2.328;2024-01-10T09:41:11;6.85;;;4.80;;
24681;SDS011;12802;53.390;-2.328;2024-01-10T09:43:38;6.53;;;4.68;;
24681;SDS011;12802;53.390;-2.328;2024-01-10T09:46:04;8.25;;;5.07;;
24681;SDS011;12802;53.390;-2.328;2024-01-10T09:48:32;8.23;;;5.65;;
24681;SDS011;12802;53.390;-2.328;2024-01-10T09:50:59;8.27;;;4.20;;
24681;SDS011;12802;53.390;-2.328;2024-01-10T09:53:25;7.15;;;4.43;;
24681;SDS011;12802;53.390;-2.328;2024-01-10T09:55:52;6.78;;;4.00;;
24681;SDS011;12802;53.390;-2.328;2024-01-10T09:58:23;10.55;;;4.40;;
24681;SDS011;12802;53.390;-2.328;2024-01-10T10:00:52;9.45;;;4.30;;
24681;SDS011;12802;53.390;-2.328;2024-01-10T10:03:18;9.57;;;4.22;;
24681;SDS011;12802;53.390;-2.328;2024-01-10T10:05:45;8.23;;;4.22;;
24681;SDS011;12802;53.390;-2.328;2024-01-10T10:08:12;7.90;;;4.25;;
24681;SDS011;12802;53.390;-2.328;2024-01-10T10:10:48;7.82;;;3.70;;
24681;SDS011;12802;53.390;-2.328;2024-01-10T10:13:24;8.80;;;3.90;;
24681;SDS011;12802;53.390;-2.328;2024-01-10T10:16:03;6.75;;;4.15;;
24681;SDS011;12802;53.390;-2.328;2024-01-10T10:18:31;7.97;;;4.57;;
24681;SDS011;12802;53.390;-2.328;2024-01-10T10:21:30;8.05;;;4.47;;
24681;SDS011;12802;53.390;-2.328;2024-01-10T10:23:59;7.53;;;4.28;;
24681;SDS011;12802;53.390;-2.328;2024-01-10T10:26:26;7.70;;;4.10;;
24681;SDS011;12802;53.390;-2.328;2024-01-10T10:28:52;7.35;;;3.75;;
24681;SDS011;12802;53.390;-2.328;2024-01-10T10:31:19;8.48;;;3.75;;
24681;SDS011;12802;53.390;-2.328;2024-01-10T10:33:45;5.50;;;3.13;;
24681;SDS011;12802;53.390;-2.328;2024-01-10T10:36:15;6.20;;;2.80;;
24681;SDS011;12802;53.390;-2.328;2024-01-10T10:38:41;5.50;;;2.72;;
24681;SDS011;12802;53.390;-2.328;2024-01-10T10:41:08;5.82;;;3.30;;
24681;SDS011;12802;53.390;-2.328;2024-01-10T10:43:37;3.63;;;2.28;;
24681;SDS011;12802;53.390;-2.328;2024-01-10T10:46:04;4.00;;;1.90;;
24681;SDS011;12802;53.390;-2.328;2024-01-10T10:48:35;5.38;;;1.90;;
24681;SDS011;12802;53.390;-2.328;2024-01-10T10:53:33;5.70;;;2.10;;
24681;SDS011;12802;53.390;-2.328;2024-01-10T10:56:00;4.97;;;2.58;;
24681;SDS011;12802;53.390;-2.328;2024-01-10T10:58:26;3.25;;;1.10;;
24681;SDS011;12802;53.390;-2.328;2024-01-10T11:00:53;2.78;;;1.35;;
24681;SDS011;12802;53.390;-2.328;2024-01-10T11:03:19;3.85;;;1.10;;
24681;SDS011;12802;53.390;-2.328;2024-01-10T11:05:46;1.63;;;1.00;;
24681;SDS011;12802;53.390;-2.328;2024-01-10T11:08:14;3.97;;;1.60;;
24681;SDS011;12802;53.390;-2.328;2024-01-10T11:10:42;2.20;;;1.35;;
24681;SDS011;12802;53.390;-2.328;2024-01-10T11:23:38;3.65;;;2.17;;
24681;SDS011;12802;53.390;-2.328;2024-01-10T11:26:06;3.35;;;2.00;;
24681;SDS011;12802;53.390;-2.328;2024-01-10T11:28:32;6.20;;;2.70;;
24681;SDS011;12802;53.390;-2.328;2024-01-10T11:30:59;4.07;;;2.60;;
24681;SDS011;12802;53.390;-2.328;2024-01-10T11:33:30;4.82;;;2.53;;
24681;SDS011;12802;53.390;-2.328;2024-01-10T11:36:09;5.95;;;3.42;;
24681;SDS011;12802;53.390;-2.328;2024-01-10T11:38:42;7.05;;;3.08;;
24681;SDS011;12802;53.390;-2.328;2024-01-10T11:41:15;6.15;;;3.53;;
24681;SDS011;12802;53.390;-2.328;2024-01-10T11:43:46;6.30;;;3.92;;
24681;SDS011;12802;53.390;-2.328;2024-01-10T11:46:12;6.55;;;3.88;;
24681;SDS011;12802;53.390;-2.328;2024-01-10T11:48:38;6.13;;;3.75;;
24681;SDS011;12802;53.390;-2.328;2024-01-10T11:51:05;6.88;;;3.78;;
24681;SDS011;12802;53.390;-2.328;2024-01-10T11:53:39;6.78;;;4.05;;
24681;SDS011;12802;53.390;-2.328;2024-01-10T11:56:09;4.22;;;3.60;;
24681;SDS011;12802;53.390;-2.328;2024-01-10T12:01:21;5.88;;;4.38;;
24681;SDS011;12802;53.390;-2.328;2024-01-10T12:03:50;7.28;;;4.20;;
24681;SDS011;12802;53.390;-2.328;2024-01-10T12:06:18;6.50;;;3.85;;
24681;SDS011;12802;53.390;-2.328;2024-01-10T12:08:45;5.78;;;3.88;;
24681;SDS011;12802;53.390;-2.328;2024-01-10T12:11:11;6.18;;;3.80;;
24681;SDS011;12802;53.390;-2.328;2024-01-10T12:13:37;5.75;;;3.42;;
24681;SDS011;12802;53.390;-2.328;2024-01-10T12:16:04;8.45;;;3.42;;
24681;SDS011;12802;53.390;-2.328;2024-01-10T12:18:30;10.30;;;3.50;;
24681;SDS011;12802;53.390;-2.328;2024-01-10T12:20:56;6.90;;;3.20;;
24681;SDS011;12802;53.390;-2.328;2024-01-10T12:23:23;7.13;;;3.38;;
24681;SDS011;12802;53.390;-2.328;2024-01-10T12:25:49;6.70;;;3.22;;
24681;SDS011;12802;53.390;-2.328;2024-01-10T12:28:16;5.40;;;3.00;;
24681;SDS011;12802;53.390;-2.328;2024-01-10T12:30:42;6.38;;;2.42;;
24681;SDS011;12802;53.390;-2.328;2024-01-10T12:33:09;7.18;;;2.55;;
24681;SDS011;12802;53.390;-2.328;2024-01-10T12:35:35;4.45;;;2.28;;
24681;SDS011;12802;53.390;-2.328;2024-01-10T12:38:03;4.57;;;1.80;;
24681;SDS011;12802;53.390;-2.328;2024-01-10T12:40:31;4.28;;;1.75;;
24681;SDS011;12802;53.390;-2.328;2024-01-10T12:43:04;4.78;;;1.77;;
24681;SDS011;12802;53.390;-2.328;2024-01-10T12:45:31;3.83;;;1.60;;
24681;SDS011;12802;53.390;-2.328;2024-01-10T12:47:57;4.93;;;1.65;;
24681;SDS011;12802;53.390;-2.328;2024-01-10T12:50:23;7.38;;;1.45;;
24681;SDS011;12802;53.390;-2.328;2024-01-10T12:52:53;3.00;;;1.00;;
24681;SDS011;12802;53.390;-2.328;2024-01-10T12:55:20;3.55;;;0.98;;
24681;SDS011;12802;53.390;-2.328;2024-01-10T12:57:46;3.03;;;0.90;;
24681;SDS011;12802;53.390;-2.328;2024-01-10T13:00:13;3.80;;;1.13;;
24681;SDS011;12802;53.390;-2.328;2024-01-10T13:02:40;2.45;;;0.85;;
24681;SDS011;12802;53.390;-2.328;2024-01-10T13:05:07;2.55;;;1.23;;
24681;SDS011;12802;53.390;-2.328;2024-01-10T13:07:37;2.75;;;1.00;;
24681;SDS011;12802;53.390;-2.328;2024-01-10T13:10:04;4.93;;;1.10;;
24681;SDS011;12802;53.390;-2.328;2024-01-10T13:12:30;4.43;;;1.20;;
24681;SDS011;12802;53.390;-2.328;2024-01-10T13:14:56;5.60;;;1.23;;
24681;SDS011;12802;53.390;-2.328;2024-01-10T13:17:22;2.58;;;1.20;;
24681;SDS011;12802;53.390;-2.328;2024-01-10T13:19:48;6.88;;;1.23;;
24681;SDS011;12802;53.390;-2.328;2024-01-10T13:22:15;3.53;;;1.40;;
24681;SDS011;12802;53.390;-2.328;2024-01-10T13:24:44;5.35;;;1.27;;
24681;SDS011;12802;53.390;-2.328;2024-01-10T13:27:11;4.10;;;1.27;;
24681;SDS011;12802;53.390;-2.328;2024-01-10T13:29:37;5.18;;;1.00;;
24681;SDS011;12802;53.390;-2.328;2024-01-10T13:32:04;2.58;;;1.13;;
24681;SDS011;12802;53.390;-2.328;2024-01-10T13:34:31;4.03;;;1.10;;
24681;SDS011;12802;53.390;-2.328;2024-01-10T13:36:57;2.05;;;0.90;;
24681;SDS011;12802;53.390;-2.328;2024-01-10T13:39:24;4.85;;;1.00;;
24681;SDS011;12802;53.390;-2.328;2024-01-10T13:41:50;2.80;;;0.80;;
24681;SDS011;12802;53.390;-2.328;2024-01-10T13:44:16;1.60;;;0.82;;
24681;SDS011;12802;53.390;-2.328;2024-01-10T13:46:43;3.88;;;1.00;;
24681;SDS011;12802;53.390;-2.328;2024-01-10T13:49:09;3.83;;;1.65;;
24681;SDS011;12802;53.390;-2.328;2024-01-10T13:51:36;2.33;;;1.27;;
24681;SDS011;12802;53.390;-2.328;2024-01-10T13:54:02;2.35;;;1.08;;
24681;SDS011;12802;53.390;-2.328;2024-01-10T13:56:28;4.93;;;1.20;;
24681;SDS011;12802;53.390;-2.328;2024-01-10T13:58:55;3.47;;;0.93;;
24681;SDS011;12802;53.390;-2.328;2024-01-10T14:01:22;4.75;;;1.23;;
24681;SDS011;12802;53.390;-2.328;2024-01-10T14:03:48;2.13;;;1.20;;
24681;SDS011;12802;53.390;-2.328;2024-01-10T14:06:14;3.45;;;1.10;;
24681;SDS011;12802;53.390;-2.328;2024-01-10T14:08:41;3.00;;;0.90;;
24681;SDS011;12802;53.390;-2.328;2024-01-10T14:11:08;2.17;;;0.60;;
24681;SDS011;12802;53.390;-2.328;2024-01-10T14:13:34;2.63;;;0.68;;
24681;SDS011;12802;53.390;-2.328;2024-01-10T14:16:01;2.30;;;0.80;;
24681;SDS011;12802;53.390;-2.328;2024-01-10T14:18:27;2.22;;;0.65;;
24681;SDS011;12802;53.390;-2.328;2024-01-10T14:20:53;2.10;;;0.65;;
24681;SDS011;12802;53.390;-2.328;2024-01-10T14:23:19;3.80;;;0.95;;
24681;SDS011;12802;53.390;-2.328;2024-01-10T14:25:45;5.35;;;0.95;;
24681;SDS011;12802;53.390;-2.328;2024-01-10T14:28:12;4.28;;;1.10;;
24681;SDS011;12802;53.390;-2.328;2024-01-10T14:30:38;3.45;;;1.15;;
24681;SDS011;12802;53.390;-2.328;2024-01-10T14:33:05;4.72;;;1.10;;
24681;SDS011;12802;53.390;-2.328;2024-01-10T14:35:31;4.10;;;1.20;;
24681;SDS011;12802;53.390;-2.328;2024-01-10T14:37:57;2.35;;;0.90;;
24681;SDS011;12802;53.390;-2.328;2024-01-10T14:40:23;3.95;;;1.17;;
24681;SDS011;12802;53.390;-2.328;2024-01-10T14:42:50;3.83;;;1.15;;
24681;SDS011;12802;53.390;-2.328;2024-01-10T14:45:16;4.18;;;1.30;;